Time;durP1;ratioP1;P1;durP2;ratioP2;P2;SDS_P1;SDS_P2;PMS_P1;PMS_P2;Temp;Humidity;BMP_temperature;BMP_pressure;BME280_temperature;BME280_humidity;BME280_pressure;Samples;Min_cycle;Max_cycle;Signal;HPM_P1;HPM_P2
2022/11/09 00:00:26;;;;;;;7.63;1.65;;;15.10;99.90;;;;;;10450554;28;20072;-29
2022/11/09 00:05:28;;;;;;;9.03;1.80;;;15.90;99.90;;;;;;10459352;28;20044;-28
2022/11/09 00:10:31;;;;;;;9.43;1.60;;;16.30;98.40;;;;;;10460428;28;20041;-28
2022/11/09 00:15:33;;;;;;;8.90;1.80;;;15.20;99.90;;;;;;10445536;28;20107;-27
2022/11/09 00:20:35;;;;;;;7.50;1.30;;;15.80;99.90;;;;;;10447911;28;20111;-33
2022/11/09 00:25:38;;;;;;;5.20;1.97;;;15.40;99.90;;;;;;10447646;28;20049;-27
2022/11/09 00:30:40;;;;;;;9.45;1.70;;;15.80;99.90;;;;;;10432592;28;20448;-28
2022/11/09 00:35:42;;;;;;;13.67;1.70;;;15.50;99.80;;;;;;10452705;28;20605;-35
2022/11/09 00:40:45;;;;;;;9.33;1.30;;;15.20;99.90;;;;;;10471296;28;20045;-27
2022/11/09 00:45:47;;;;;;;11.73;1.85;;;15.70;99.90;;;;;;10461783;28;20053;-29
2022/11/09 00:50:50;;;;;;;9.90;1.83;;;15.60;99.90;;;;;;10449737;28;20045;-29
2022/11/09 00:55:57;;;;;;;10.20;1.52;;;15.10;99.90;;;;;;10471122;28;20453;-28
2022/11/09 01:01:05;;;;;;;9.10;1.48;;;16.10;99.90;;;;;;10466877;28;20127;-28
2022/11/09 01:06:07;;;;;;;13.30;2.20;;;15.30;99.90;;;;;;10445510;28;20056;-32
2022/11/09 01:11:11;;;;;;;9.18;1.65;;;15.00;99.90;;;;;;10428866;28;20126;-27
2022/11/09 01:16:16;;;;;;;12.10;2.08;;;15.00;99.90;;;;;;10434487;28;20480;-26
2022/11/09 01:21:18;;;;;;;9.40;1.50;;;15.60;99.90;;;;;;10429328;28;20581;-27
2022/11/09 01:26:21;;;;;;;11.80;1.70;;;16.60;97.20;;;;;;10427813;28;20119;-28
2022/11/09 01:31:23;;;;;;;7.15;1.58;;;15.60;98.80;;;;;;10435827;28;20095;-30
2022/11/09 01:36:25;;;;;;;8.17;1.47;;;14.70;99.90;;;;;;10443702;28;20179;-32
2022/11/09 01:41:29;;;;;;;12.75;1.77;;;15.60;99.40;;;;;;10452976;28;20052;-28
2022/11/09 01:46:37;;;;;;;10.25;1.88;;;14.70;99.90;;;;;;10466162;28;20273;-27
2022/11/09 01:51:43;;;;;;;8.50;1.83;;;14.70;99.90;;;;;;10460962;28;20482;-29
2022/11/09 01:56:48;;;;;;;9.85;1.50;;;15.20;99.60;;;;;;10458282;28;20053;-27
2022/11/09 02:01:51;;;;;;;16.25;2.47;;;15.40;99.90;;;;;;10439644;28;20052;-29
2022/11/09 02:06:55;;;;;;;12.13;2.15;;;15.50;99.90;;;;;;10447549;28;20084;-28
2022/11/09 02:11:59;;;;;;;9.32;1.85;;;15.70;97.70;;;;;;10450046;28;20053;-29
2022/11/09 02:17:01;;;;;;;15.10;1.83;;;15.70;98.10;;;;;;10444270;28;20060;-29
2022/11/09 02:22:04;;;;;;;11.57;2.50;;;14.70;99.90;;;;;;10456023;28;20080;-29
2022/11/09 02:27:07;;;;;;;9.50;1.30;;;14.60;99.90;;;;;;10461996;28;20048;-29
2022/11/09 02:32:14;;;;;;;16.15;2.38;;;15.10;99.90;;;;;;10465326;28;20053;-34
2022/11/09 02:37:26;;;;;;;15.02;2.08;;;14.80;99.90;;;;;;10445670;28;20469;-32
2022/11/09 02:42:29;;;;;;;15.15;2.42;;;14.90;99.70;;;;;;10440780;28;20045;-30
2022/11/09 02:47:31;;;;;;;12.35;1.90;;;14.20;99.90;;;;;;10442352;28;20568;-27
2022/11/09 02:52:34;;;;;;;12.37;1.83;;;15.00;99.90;;;;;;10443204;28;20053;-28
2022/11/09 02:57:36;;;;;;;6.45;1.20;;;15.10;99.90;;;;;;10456413;28;20154;-28
2022/11/09 03:02:38;;;;;;;11.43;1.77;;;15.40;99.90;;;;;;10451297;28;20098;-27
2022/11/09 03:07:41;;;;;;;9.27;1.70;;;15.20;99.90;;;;;;10442757;28;20436;-27
2022/11/09 03:12:43;;;;;;;7.55;1.33;;;15.40;99.90;;;;;;10457938;28;20065;-26
2022/11/09 03:17:45;;;;;;;5.33;1.50;;;15.70;99.20;;;;;;10455218;28;20146;-27
2022/11/09 03:22:48;;;;;;;10.37;1.77;;;15.30;99.90;;;;;;10459086;28;20041;-30
2022/11/09 03:27:49;;;;;;;6.50;1.30;;;15.30;99.90;;;;;;10437756;28;20478;-29
2022/11/09 03:32:56;;;;;;;7.73;1.60;;;15.80;99.80;;;;;;10447670;28;20049;-30
2022/11/09 03:38:00;;;;;;;7.47;1.65;;;16.30;97.00;;;;;;10442440;28;20092;-27
2022/11/09 03:43:02;;;;;;;11.77;2.45;;;15.50;99.90;;;;;;10450196;28;20470;-28
2022/11/09 03:48:04;;;;;;;8.10;1.47;;;15.40;99.90;;;;;;10468543;28;20398;-26
2022/11/09 03:53:09;;;;;;;12.57;1.88;;;14.60;99.90;;;;;;10458040;28;20124;-29
2022/11/09 03:58:12;;;;;;;6.95;1.15;;;15.10;99.90;;;;;;10465350;28;20147;-27
2022/11/09 04:03:13;;;;;;;;;;;14.90;99.90;;;;;;10462796;28;20045;-35
2022/11/09 04:08:16;;;;;;;4.15;1.33;;;15.50;99.90;;;;;;10463193;28;19956;-26
2022/11/09 04:13:18;;;;;;;14.85;1.85;;;15.20;99.90;;;;;;10461065;28;20049;-31
2022/11/09 04:18:20;;;;;;;15.60;2.03;;;15.60;99.90;;;;;;10464115;28;20049;-27
2022/11/09 04:23:24;;;;;;;9.13;1.70;;;14.90;99.90;;;;;;10474663;28;20048;-30
2022/11/09 04:28:26;;;;;;;5.32;1.60;;;15.80;97.90;;;;;;10467132;28;20056;-29
2022/11/09 04:33:28;;;;;;;5.90;1.10;;;15.20;99.90;;;;;;10449839;28;20049;-29
2022/11/09 04:38:31;;;;;;;6.05;1.33;;;16.20;97.80;;;;;;10425735;28;20527;-28
2022/11/09 04:43:34;;;;;;;11.85;1.33;;;15.80;99.10;;;;;;10428862;28;20083;-29
2022/11/09 04:48:36;;;;;;;5.47;1.02;;;15.30;99.90;;;;;;10446771;28;20075;-27
2022/11/09 04:53:39;;;;;;;7.20;1.10;;;16.30;97.90;;;;;;10453469;28;20351;-30
2022/11/09 04:58:42;;;;;;;4.35;1.27;;;17.30;95.00;;;;;;10459229;28;20059;-28
2022/11/09 05:03:43;;;;;;;6.38;1.10;;;16.30;98.80;;;;;;10468305;28;20049;-32
2022/11/09 05:08:47;;;;;;;5.13;1.20;;;15.00;99.90;;;;;;10440856;28;20088;-36
2022/11/09 05:13:50;;;;;;;11.02;1.75;;;16.50;97.30;;;;;;10438084;28;20057;-28
2022/11/09 05:18:52;;;;;;;12.00;1.92;;;15.50;99.90;;;;;;10444655;28;20082;-33
2022/11/09 05:23:58;;;;;;;5.07;1.17;;;15.80;98.60;;;;;;10439804;28;20041;-27
2022/11/09 05:29:02;;;;;;;6.03;1.42;;;15.50;99.00;;;;;;10429376;28;20041;-27
2022/11/09 05:34:06;;;;;;;16.65;3.30;;;16.00;97.40;;;;;;10427653;28;20049;-31
2022/11/09 05:39:09;;;;;;;5.30;1.33;;;16.30;96.80;;;;;;10424066;28;20049;-28
2022/11/09 05:44:11;;;;;;;8.00;1.85;;;16.60;96.40;;;;;;10435742;28;20450;-28
2022/11/09 05:49:13;;;;;;;3.10;1.33;;;15.60;96.90;;;;;;10420359;28;20175;-26
2022/11/09 05:54:16;;;;;;;10.70;1.67;;;17.10;95.10;;;;;;10421841;28;20052;-32
2022/11/09 05:59:18;;;;;;;4.85;1.00;;;15.40;98.50;;;;;;10427076;28;20149;-29
2022/11/09 06:04:20;;;;;;;8.37;1.67;;;15.50;99.90;;;;;;10436645;28;20090;-27
2022/11/09 06:09:23;;;;;;;2.75;0.90;;;16.40;97.40;;;;;;10431377;28;20099;-28
2022/11/09 06:14:25;;;;;;;8.63;1.92;;;16.70;96.50;;;;;;10431843;28;20049;-28
2022/11/09 06:19:27;;;;;;;3.80;1.00;;;15.90;97.40;;;;;;10433205;28;20119;-29
2022/11/09 06:24:30;;;;;;;5.00;1.97;;;16.30;94.40;;;;;;10436876;28;20064;-27
2022/11/09 06:29:32;;;;;;;7.45;1.58;;;16.20;97.60;;;;;;10433940;28;20163;-29
2022/11/09 06:34:34;;;;;;;9.57;2.17;;;15.60;99.60;;;;;;10458642;28;20044;-28
2022/11/09 06:39:37;;;;;;;15.80;3.47;;;15.30;98.00;;;;;;10437517;28;20591;-29
2022/11/09 06:44:39;;;;;;;7.70;1.65;;;15.20;99.90;;;;;;10441634;28;20421;-29
2022/11/09 06:49:41;;;;;;;5.67;1.13;;;16.10;97.40;;;;;;10444171;28;20082;-29
2022/11/09 06:54:44;;;;;;;16.20;2.03;;;15.20;98.40;;;;;;10440554;28;20080;-28
2022/11/09 06:59:46;;;;;;;11.13;1.80;;;16.20;95.10;;;;;;10428803;28;20057;-27
2022/11/09 07:15:30;;;;;;;14.15;1.80;;;15.10;99.80;;;;;;10579340;27;20603;-31
2022/11/09 07:20:32;;;;;;;9.27;1.98;;;15.30;97.30;;;;;;10589894;28;20530;-28
2022/11/09 07:25:34;;;;;;;8.80;1.87;;;14.60;99.90;;;;;;10565304;28;20040;-34
2022/11/09 07:30:38;;;;;;;13.32;2.67;;;14.90;99.90;;;;;;10545920;28;20044;-28
2022/11/09 07:35:40;;;;;;;7.35;1.65;;;15.40;99.80;;;;;;10562407;28;20051;-28
2022/11/09 07:40:43;;;;;;;7.15;1.58;;;15.70;99.10;;;;;;10559448;28;20050;-29
2022/11/09 07:45:46;;;;;;;11.75;1.42;;;15.60;98.40;;;;;;10563505;28;20051;-29
2022/11/09 07:50:48;;;;;;;9.52;1.23;;;15.20;99.20;;;;;;10569307;28;20479;-27
2022/11/09 07:55:57;;;;;;;10.07;1.63;;;16.10;98.80;;;;;;10577672;28;20055;-27
2022/11/09 08:01:00;;;;;;;13.98;2.35;;;16.60;96.80;;;;;;10565315;28;20477;-30
2022/11/09 08:06:02;;;;;;;8.80;1.42;;;14.90;99.90;;;;;;10562983;28;20047;-33
2022/11/09 08:11:04;;;;;;;8.43;1.60;;;14.80;99.90;;;;;;10583672;28;20618;-27
2022/11/09 08:16:08;;;;;;;9.73;1.87;;;15.30;99.90;;;;;;10554480;28;20105;-28
2022/11/09 08:21:10;;;;;;;4.28;1.52;;;16.80;95.20;;;;;;10556133;28;20044;-28
2022/11/09 08:26:12;;;;;;;4.28;1.23;;;16.50;95.30;;;;;;10539798;28;20101;-29
2022/11/09 08:31:16;;;;;;;15.50;1.93;;;16.90;95.40;;;;;;10531160;28;20271;-28
2022/11/09 08:36:18;;;;;;;10.45;2.33;;;14.80;99.20;;;;;;10548905;28;20518;-30
2022/11/09 08:41:20;;;;;;;14.20;2.20;;;14.70;99.90;;;;;;10535326;28;20127;-27
2022/11/09 08:46:24;;;;;;;6.60;1.23;;;15.80;96.80;;;;;;10537654;28;20126;-29
2022/11/09 08:51:26;;;;;;;7.05;1.27;;;16.30;97.40;;;;;;10547505;28;20047;-27
2022/11/09 08:56:28;;;;;;;5.93;1.67;;;16.20;96.70;;;;;;10531655;28;20072;-30
2022/11/09 09:01:31;;;;;;;5.47;1.47;;;15.70;98.90;;;;;;10544750;28;20040;-26
2022/11/09 09:06:33;;;;;;;6.30;1.38;;;16.50;96.40;;;;;;10534845;28;20082;-28
2022/11/09 09:11:35;;;;;;;9.13;1.73;;;15.90;97.50;;;;;;10521637;28;20060;-28
2022/11/09 09:16:38;;;;;;;9.27;1.90;;;15.30;98.30;;;;;;10520113;28;20235;-28
2022/11/09 09:21:40;;;;;;;13.18;2.00;;;15.80;97.20;;;;;;10526891;28;20043;-30
2022/11/09 09:26:43;;;;;;;17.90;2.33;;;16.00;98.10;;;;;;10548712;28;20134;-31
2022/11/09 09:31:47;;;;;;;4.90;1.63;;;16.20;95.50;;;;;;10536005;28;20152;-32
2022/11/09 09:36:51;;;;;;;10.23;1.88;;;17.30;95.40;;;;;;10544468;28;20089;-30
2022/11/09 09:41:56;;;;;;;10.38;1.83;;;15.50;99.90;;;;;;10538120;28;20450;-28
2022/11/09 09:47:10;;;;;;;11.90;2.15;;;16.00;98.30;;;;;;10549522;28;20043;-28
2022/11/09 09:52:20;;;;;;;7.50;1.92;;;15.50;99.90;;;;;;10536054;28;20051;-29
2022/11/09 09:57:24;;;;;;;19.20;2.25;;;14.60;99.90;;;;;;10547529;28;20094;-29
2022/11/09 10:02:29;;;;;;;5.60;1.20;;;14.80;99.20;;;;;;10533693;28;20048;-28
2022/11/09 10:07:37;;;;;;;13.88;2.08;;;14.70;99.90;;;;;;10522549;28;20454;-27
2022/11/09 10:12:55;;;;;;;10.65;1.58;;;14.60;99.90;;;;;;10542802;28;20051;-33
2022/11/09 10:18:23;;;;;;;12.82;2.47;;;14.10;99.90;;;;;;10525979;28;20048;-31
2022/11/09 10:23:40;;;;;;;11.07;1.55;;;14.10;99.90;;;;;;10539596;28;20048;-31
2022/11/09 10:28:44;;;;;;;9.80;2.05;;;14.40;99.90;;;;;;10532114;28;20051;-29
2022/11/09 10:33:51;;;;;;;12.85;2.10;;;14.80;99.90;;;;;;10541545;28;20051;-29
2022/11/09 10:38:58;;;;;;;5.75;1.30;;;13.70;99.90;;;;;;10539198;28;20549;-31
2022/11/09 10:44:00;;;;;;;9.38;1.50;;;13.70;99.90;;;;;;10532935;28;20500;-27
2022/11/09 10:49:19;;;;;;;7.10;1.40;;;14.50;99.90;;;;;;10524106;28;20131;-27
2022/11/09 10:54:24;;;;;;;3.20;1.23;;;14.80;99.90;;;;;;10528224;28;20129;-28
2022/11/09 10:59:43;;;;;;;12.55;1.80;;;14.10;99.90;;;;;;10522505;28;20052;-28
2022/11/09 11:04:46;;;;;;;13.00;2.35;;;14.00;99.90;;;;;;10524953;28;20568;-26
2022/11/09 11:09:48;;;;;;;8.25;1.90;;;13.70;99.90;;;;;;10518126;28;20106;-27
2022/11/09 11:14:51;;;;;;;4.85;1.30;;;14.10;99.90;;;;;;10535005;28;20570;-26
2022/11/09 11:19:54;;;;;;;5.55;1.38;;;13.80;99.90;;;;;;10533917;28;20489;-30
2022/11/09 11:24:58;;;;;;;10.38;1.30;;;14.50;99.90;;;;;;10524968;28;20076;-29
2022/11/09 11:30:06;;;;;;;6.85;1.05;;;14.10;99.90;;;;;;10533253;28;20044;-32
2022/11/09 11:35:15;;;;;;;3.58;1.40;;;13.90;99.90;;;;;;10530177;28;20480;-31
2022/11/09 11:40:23;;;;;;;4.75;1.00;;;13.60;99.90;;;;;;10519845;28;20052;-28
2022/11/09 11:45:31;;;;;;;6.70;1.30;;;15.00;99.90;;;;;;10520413;28;20539;-28
2022/11/09 11:50:40;;;;;;;8.43;1.10;;;13.50;99.90;;;;;;10541011;28;20060;-29
2022/11/09 11:56:07;;;;;;;8.68;1.98;;;13.90;99.90;;;;;;10528983;28;20472;-27
2022/11/09 12:01:24;;;;;;;10.05;1.77;;;14.60;99.90;;;;;;10537737;28;20048;-31
2022/11/09 12:07:00;;;;;;;5.38;1.20;;;14.80;99.90;;;;;;10560686;28;20517;-27
2022/11/09 12:12:16;;;;;;;9.48;1.40;;;14.80;99.40;;;;;;10544920;28;20574;-30
2022/11/09 12:17:28;;;;;;;3.97;1.00;;;15.70;98.40;;;;;;10534067;28;20189;-28
2022/11/09 12:22:39;;;;;;;11.70;2.03;;;15.20;96.90;;;;;;10540442;28;20040;-28
2022/11/09 12:27:59;;;;;;;7.72;1.48;;;14.60;99.10;;;;;;10530722;28;20444;-28
2022/11/09 12:33:05;;;;;;;8.48;1.30;;;15.30;98.50;;;;;;10532078;28;20075;-30
2022/11/09 12:38:15;;;;;;;10.43;1.10;;;15.40;97.60;;;;;;10539869;28;20044;-29
2022/11/09 12:43:21;;;;;;;7.70;0.93;;;15.80;95.70;;;;;;10533323;28;20705;-34
2022/11/09 12:48:27;;;;;;;5.18;1.00;;;14.70;99.90;;;;;;10546354;28;20067;-27
2022/11/09 12:53:35;;;;;;;8.32;1.30;;;15.50;98.80;;;;;;10531676;28;20503;-29
2022/11/09 12:58:39;;;;;;;12.98;1.20;;;14.80;99.90;;;;;;10548061;28;20048;-28
2022/11/09 13:03:54;;;;;;;11.05;1.30;;;15.60;97.70;;;;;;10532208;28;20040;-29
2022/11/09 13:09:00;;;;;;;8.00;1.48;;;15.10;98.30;;;;;;10535525;28;20093;-28
2022/11/09 13:14:33;;;;;;;10.95;1.40;;;14.90;97.30;;;;;;10531357;28;20084;-29
2022/11/09 13:19:54;;;;;;;6.25;1.10;;;15.40;96.90;;;;;;10502784;28;20068;-29
2022/11/09 13:24:59;;;;;;;12.57;2.15;;;15.50;96.80;;;;;;10525075;28;20139;-31
2022/11/09 13:30:01;;;;;;;13.93;2.00;;;15.50;96.90;;;;;;10521525;28;20396;-29
2022/11/09 13:35:04;;;;;;;8.05;1.40;;;15.10;97.60;;;;;;10518942;28;20052;-30
2022/11/09 13:40:47;;;;;;;15.70;2.00;;;14.90;99.90;;;;;;10513181;28;20055;-31
2022/11/09 13:45:51;;;;;;;6.43;1.30;;;15.10;99.90;;;;;;10528644;28;20048;-28
2022/11/09 13:50:55;;;;;;;18.67;2.33;;;15.30;99.90;;;;;;10534617;28;20110;-30
2022/11/09 13:55:58;;;;;;;17.95;2.47;;;14.50;99.90;;;;;;10523074;28;20040;-35
2022/11/09 14:01:00;;;;;;;20.15;2.47;;;15.40;99.40;;;;;;10530076;28;20089;-28
2022/11/09 14:06:03;;;;;;;15.67;1.70;;;14.70;99.90;;;;;;10515839;28;20062;-29
2022/11/09 14:11:16;;;;;;;;;;;15.20;99.90;;;;;;10536801;28;20119;-29
2022/11/09 14:16:26;;;;;;;10.07;1.20;;;15.90;98.30;;;;;;10503748;28;19933;-29
2022/11/09 14:21:38;;;;;;;12.38;1.73;;;16.20;96.30;;;;;;10500668;28;20049;-31
2022/11/09 14:26:59;;;;;;;7.70;1.30;;;16.90;95.20;;;;;;10510233;28;20490;-32
2022/11/09 14:32:03;;;;;;;5.15;1.05;;;17.20;93.60;;;;;;10513789;28;20048;-32
2022/11/09 14:37:06;;;;;;;12.93;1.60;;;16.10;92.40;;;;;;10508516;28;20131;-27
2022/11/09 14:42:17;;;;;;;7.80;1.25;;;15.90;95.10;;;;;;10500561;28;20516;-27
2022/11/09 14:47:23;;;;;;;6.50;2.13;;;15.50;98.20;;;;;;10516202;28;20064;-28
2022/11/09 14:52:28;;;;;;;4.07;0.80;;;15.50;95.20;;;;;;10516532;28;20121;-28
2022/11/09 14:57:32;;;;;;;5.82;1.08;;;16.30;94.30;;;;;;10525804;28;20586;-28
2022/11/09 15:02:36;;;;;;;4.75;0.85;;;15.60;97.20;;;;;;10523316;28;20462;-29
2022/11/09 15:07:38;;;;;;;6.35;1.35;;;15.80;95.30;;;;;;10526722;28;20063;-34
2022/11/09 15:12:48;;;;;;;6.90;1.00;;;15.40;99.90;;;;;;10536655;28;20079;-31
2022/11/09 15:17:50;;;;;;;3.33;0.90;;;17.10;97.30;;;;;;10532021;28;20477;-28
2022/11/09 15:22:54;;;;;;;9.77;1.77;;;16.70;96.70;;;;;;10537572;28;20557;-29
2022/11/09 15:28:18;;;;;;;5.97;1.70;;;15.60;95.60;;;;;;10528870;28;20052;-30
2022/11/09 15:33:24;;;;;;;12.68;1.70;;;16.80;93.00;;;;;;10522823;28;20417;-28
2022/11/09 15:38:33;;;;;;;5.25;1.83;;;15.50;95.10;;;;;;10546165;28;20472;-30
2022/11/09 15:43:37;;;;;;;4.82;1.90;;;15.50;95.20;;;;;;10540685;28;20039;-28
2022/11/09 15:48:39;;;;;;;7.80;1.55;;;16.10;99.30;;;;;;10531154;28;20089;-34
2022/11/09 15:53:41;;;;;;;7.50;2.45;;;16.10;98.20;;;;;;10527142;28;20054;-31
2022/11/09 15:58:47;;;;;;;9.93;1.83;;;15.00;98.30;;;;;;10536226;28;20094;-31
2022/11/09 16:03:49;;;;;;;7.57;1.60;;;14.60;98.50;;;;;;10545970;28;20052;-28
2022/11/09 16:08:52;;;;;;;8.23;1.97;;;15.30;95.80;;;;;;10545488;28;20138;-28
2022/11/09 16:13:55;;;;;;;;;;;16.00;99.80;;;;;;10513112;28;20099;-28
2022/11/09 16:18:57;;;;;;;8.40;1.75;;;15.50;97.00;;;;;;10543464;28;19981;-29
2022/11/09 16:23:59;;;;;;;10.45;1.70;;;15.00;99.90;;;;;;10537001;28;20136;-32
2022/11/09 16:29:02;;;;;;;6.93;2.30;;;14.80;98.00;;;;;;10530871;28;20442;-27
2022/11/09 16:34:05;;;;;;;8.05;1.63;;;15.30;99.30;;;;;;10513539;28;20052;-29
2022/11/09 16:39:11;;;;;;;9.48;1.65;;;15.30;97.40;;;;;;10527311;28;20040;-31
2022/11/09 16:44:17;;;;;;;10.43;2.28;;;14.70;99.90;;;;;;10515537;28;20041;-28
2022/11/09 16:49:18;;;;;;;7.38;1.88;;;16.10;97.50;;;;;;10528277;28;20044;-30
2022/11/09 16:54:21;;;;;;;8.23;2.35;;;15.20;99.60;;;;;;10551432;28;20047;-29
2022/11/09 16:59:25;;;;;;;5.32;1.00;;;15.10;99.90;;;;;;10539865;28;20452;-30
2022/11/09 17:04:27;;;;;;;4.85;1.20;;;15.30;94.80;;;;;;10545501;28;20059;-27
2022/11/09 17:09:33;;;;;;;7.07;1.25;;;14.90;95.60;;;;;;10532721;28;20150;-28
2022/11/09 17:14:36;;;;;;;8.35;1.40;;;14.60;96.40;;;;;;10531833;28;20087;-29
2022/11/09 17:19:39;;;;;;;8.20;1.20;;;14.70;99.90;;;;;;10542593;28;20044;-31
2022/11/09 17:24:41;;;;;;;;;;;14.50;98.20;;;;;;10531177;28;20052;-30
2022/11/09 17:29:44;;;;;;;14.05;5.28;;;15.00;98.80;;;;;;10515075;28;19924;-32
2022/11/09 17:34:46;;;;;;;83.18;44.10;;;16.10;97.60;;;;;;10537973;28;20088;-30
2022/11/09 17:39:48;;;;;;;51.13;24.73;;;16.30;95.60;;;;;;10519708;28;20109;-30
2022/11/09 17:44:51;;;;;;;76.53;42.60;;;15.80;93.20;;;;;;10529148;28;20086;-27
2022/11/09 17:49:53;;;;;;;35.92;18.05;;;15.90;92.70;;;;;;10536279;28;20544;-27
2022/11/09 17:54:55;;;;;;;14.97;3.63;;;14.90;95.50;;;;;;10551526;28;20132;-32
2022/11/09 17:59:59;;;;;;;220.30;122.60;;;15.20;96.00;;;;;;10549068;28;20067;-28
2022/11/09 18:05:01;;;;;;;268.58;160.48;;;16.20;97.60;;;;;;10517854;28;20052;-28
2022/11/09 18:10:03;;;;;;;79.17;43.30;;;16.60;94.60;;;;;;10531973;28;20072;-29
2022/11/09 18:15:08;;;;;;;109.70;61.53;;;15.50;96.50;;;;;;10517471;28;20055;-32
2022/11/09 18:20:10;;;;;;;52.35;28.60;;;14.90;97.30;;;;;;10535597;28;20048;-28
2022/11/09 18:25:12;;;;;;;267.77;156.00;;;14.70;98.10;;;;;;10538562;28;20112;-29
2022/11/09 18:30:17;;;;;;;38.50;18.67;;;16.10;99.10;;;;;;10518557;28;20048;-29
2022/11/09 18:35:18;;;;;;;164.32;92.22;;;16.00;97.20;;;;;;10506448;28;20469;-27
2022/11/09 18:40:20;;;;;;;149.87;80.67;;;14.90;99.90;;;;;;10495463;28;20139;-27
2022/11/09 18:45:24;;;;;;;138.30;80.22;;;14.80;99.90;;;;;;10504273;28;20040;-31
2022/11/09 18:50:25;;;;;;;122.72;68.65;;;15.20;99.30;;;;;;10505410;28;20163;-31
2022/11/09 18:55:28;;;;;;;57.70;27.70;;;14.50;99.90;;;;;;10504705;28;20139;-28
2022/11/09 19:00:31;;;;;;;27.55;11.77;;;13.90;99.90;;;;;;10499924;28;20093;-28
2022/11/09 19:05:35;;;;;;;146.63;82.18;;;14.40;99.90;;;;;;10540261;28;20090;-29
2022/11/09 19:10:38;;;;;;;39.35;20.15;;;15.50;99.90;;;;;;10546331;28;20472;-29
2022/11/09 19:15:43;;;;;;;20.65;8.07;;;14.60;99.90;;;;;;10541275;28;20051;-28
2022/11/09 19:20:46;;;;;;;31.10;12.63;;;14.40;99.90;;;;;;10513560;28;20052;-31
2022/11/09 19:25:49;;;;;;;22.02;8.10;;;14.90;98.00;;;;;;10535892;28;20072;-28
2022/11/09 19:30:52;;;;;;;25.95;8.70;;;15.00;99.90;;;;;;10551956;28;20134;-31
2022/11/09 19:35:54;;;;;;;68.60;36.75;;;14.50;99.90;;;;;;10549529;28;20091;-28
2022/11/09 19:40:56;;;;;;;37.03;18.43;;;15.20;99.90;;;;;;10529310;28;20047;-28
2022/11/09 19:46:00;;;;;;;94.33;52.90;;;15.70;98.80;;;;;;10516612;28;20057;-31
2022/11/09 19:51:04;;;;;;;42.17;21.55;;;16.60;96.80;;;;;;10521251;28;20478;-30
2022/11/09 19:56:08;;;;;;;56.00;31.92;;;15.40;95.80;;;;;;10511788;28;20135;-31
2022/11/09 20:01:12;;;;;;;89.63;50.15;;;16.10;99.90;;;;;;10524737;28;20045;-29
2022/11/09 20:06:13;;;;;;;29.10;17.55;;;16.50;95.70;;;;;;10537177;28;20056;-32
2022/11/09 20:16:35;;;;;;;30.77;12.48;;;15.10;98.10;;;;;;10532171;28;20501;-32
2022/11/09 20:21:39;;;;;;;39.20;18.77;;;15.30;96.00;;;;;;10544817;28;20158;-30
2022/11/09 20:26:42;;;;;;;72.82;38.05;;;16.30;96.20;;;;;;10526222;28;20063;-30
2022/11/09 20:31:46;;;;;;;49.80;28.17;;;16.10;97.30;;;;;;10511730;28;20045;-25
2022/11/09 20:36:48;;;;;;;56.58;28.35;;;16.50;95.10;;;;;;10525256;28;20489;-28
2022/11/09 20:41:50;;;;;;;66.17;35.23;;;15.50;99.90;;;;;;10508004;28;20442;-28
2022/11/09 20:46:53;;;;;;;22.50;9.43;;;15.90;99.10;;;;;;10520472;28;20539;-28
2022/11/09 20:51:55;;;;;;;15.05;2.25;;;15.30;95.70;;;;;;10518753;28;20482;-26
2022/11/09 20:56:57;;;;;;;44.25;21.80;;;15.70;94.50;;;;;;10543993;28;20079;-30
2022/11/09 21:02:00;;;;;;;52.93;31.63;;;16.60;96.00;;;;;;10548385;28;20136;-30
2022/11/09 21:07:04;;;;;;;21.30;10.15;;;16.80;96.40;;;;;;10538791;28;20553;-34
2022/11/09 21:12:21;;;;;;;48.95;29.23;;;16.80;93.10;;;;;;10542035;28;20082;-29
2022/11/09 21:17:24;;;;;;;9.85;2.35;;;17.00;95.70;;;;;;10527329;28;20089;-30
2022/11/09 21:29:48;;;;;;;31.23;15.43;;;14.90;96.00;;;;;;10544566;28;20548;-32
2022/11/09 21:33:11;;;;;;;24.10;12.30;;;16.00;98.50;;;;;;10491749;28;20056;-29
2022/11/09 21:38:13;;;;;;;19.13;9.07;;;16.70;95.00;;;;;;10510404;28;20417;-29
2022/11/09 21:43:15;;;;;;;12.03;3.70;;;17.30;90.60;;;;;;10523647;28;20048;-28
2022/11/09 21:48:23;;;;;;;34.97;21.20;;;17.20;87.00;;;;;;10544765;28;20152;-28
2022/11/09 21:53:31;;;;;;;39.58;19.83;;;18.10;91.60;;;;;;10534204;28;20071;-29
2022/11/09 21:58:35;;;;;;;35.67;18.50;;;18.60;88.70;;;;;;10531134;28;20048;-28
2022/11/09 22:03:43;;;;;;;35.40;19.63;;;18.40;88.70;;;;;;10545660;28;20064;-27
2022/11/09 22:08:46;;;;;;;36.22;19.38;;;18.60;88.10;;;;;;10537788;28;20047;-29
2022/11/09 22:24:29;;;;;;;29.58;17.23;;;19.20;83.80;;;;;;10520544;28;20473;-30
2022/11/09 22:29:31;;;;;;;29.75;15.75;;;19.10;84.00;;;;;;10534011;28;20047;-29
2022/11/09 22:34:35;;;;;;;;;;;19.10;83.90;;;;;;10508042;28;20113;-29
2022/11/09 22:39:37;;;;;;;29.77;13.95;;;19.20;83.40;;;;;;10538831;28;20325;-29
2022/11/09 22:44:38;;;;;;;26.08;14.25;;;19.20;83.20;;;;;;10520057;28;20146;-26
2022/11/09 22:49:42;;;;;;;18.80;7.07;;;19.30;82.10;;;;;;10531292;28;20466;-28
2022/11/09 22:54:44;;;;;;;26.23;13.18;;;19.00;82.30;;;;;;10523720;28;20075;-31
2022/11/09 22:59:46;;;;;;;20.98;11.52;;;19.00;84.80;;;;;;10525322;28;20185;-29
2022/11/09 23:04:50;;;;;;;25.83;11.63;;;19.10;83.80;;;;;;10517430;28;20041;-28
2022/11/09 23:09:52;;;;;;;19.25;6.70;;;18.90;85.20;;;;;;10518446;28;20447;-28
2022/11/09 23:15:11;;;;;;;24.60;10.30;;;18.90;84.60;;;;;;10522683;28;20058;-27
2022/11/09 23:20:14;;;;;;;21.77;9.98;;;18.90;85.30;;;;;;10519830;28;20561;-30
2022/11/09 23:30:37;;;;;;;19.63;8.52;;;19.10;83.10;;;;;;10539421;28;20075;-29
2022/11/09 23:35:40;;;;;;;;;;;18.40;88.40;;;;;;10543995;28;20130;-28
2022/11/09 23:40:42;;;;;;;17.08;6.88;;;18.90;84.70;;;;;;10538911;28;19959;-31
2022/11/09 23:45:46;;;;;;;19.17;7.30;;;19.10;83.40;;;;;;10526769;28;20044;-30
2022/11/09 23:50:50;;;;;;;15.00;6.43;;;19.00;83.80;;;;;;10527761;28;20071;-26
2022/11/09 23:55:52;;;;;;;16.05;5.78;;;19.00;83.60;;;;;;10538054;28;20079;-31
